VLG6535 LICC-LEBL
Flight info
| Callsign | VLG6535 |
|---|---|
| Flight time | N/A |
| Altitude | 36000 |
| Route | BUDIN DCT NERAR DCT AMANO DCT ROXAN/N0448F370 DCT EPIKU/N0450F360 DCT GINOX DCT KIFMI/N0429F280 DCT ELVOP DCT MUREN DCT CHELY DCT VERSO |
| Aircraft | A21N/M-SDE2E3FGHIRWXY/LB1 |
Departure
| Time | 2026-04-29 18:10 |
|---|---|
| Airport | Catania-Fontanarossa Airport (LICC) |
Arrival
| Time | N/A |
|---|---|
| Airport | Josep Tarradellas Barcelona-El Prat Airport (LEBL) |
| Time | Latitude | Longitude | Altitude | Speed | Heading |
|---|---|---|---|---|---|
| 2026-04-29 17:42 | 37.46913 | 15.06683 | 35 ft | 0 kts | 354° |
| 2026-04-29 18:00 | 37.46912 | 15.06683 | 35 ft | 1 kts | 354° |
| 2026-04-29 18:00 | 37.46893 | 15.06687 | 32 ft | 3 kts | 344° |
| 2026-04-29 18:00 | 37.46875 | 15.06696 | 32 ft | 3 kts | 326° |
| 2026-04-29 18:01 | 37.46860 | 15.06712 | 33 ft | 3 kts | 301° |
| 2026-04-29 18:01 | 37.46853 | 15.06734 | 32 ft | 3 kts | 272° |
| 2026-04-29 18:01 | 37.46853 | 15.06745 | 32 ft | 1 kts | 264° |
| 2026-04-29 18:04 | 37.46853 | 15.06743 | 32 ft | 2 kts | 264° |
| 2026-04-29 18:05 | 37.46850 | 15.06702 | 33 ft | 6 kts | 264° |
| 2026-04-29 18:05 | 37.46844 | 15.06638 | 35 ft | 9 kts | 264° |
| 2026-04-29 18:05 | 37.46837 | 15.06551 | 35 ft | 11 kts | 264° |
| 2026-04-29 18:05 | 37.46828 | 15.06444 | 35 ft | 13 kts | 264° |
| 2026-04-29 18:06 | 37.46817 | 15.06318 | 35 ft | 16 kts | 264° |
| 2026-04-29 18:06 | 37.46805 | 15.06174 | 35 ft | 17 kts | 264° |
| 2026-04-29 18:06 | 37.46791 | 15.06013 | 35 ft | 20 kts | 264° |
| 2026-04-29 18:06 | 37.46776 | 15.05835 | 35 ft | 21 kts | 264° |
| 2026-04-29 18:07 | 37.46760 | 15.05640 | 35 ft | 23 kts | 264° |
| 2026-04-29 18:07 | 37.46745 | 15.05445 | 35 ft | 21 kts | 264° |
| 2026-04-29 18:07 | 37.46720 | 15.05316 | 35 ft | 14 kts | 232° |
| 2026-04-29 18:07 | 37.46662 | 15.05250 | 34 ft | 10 kts | 221° |
| 2026-04-29 18:08 | 37.46608 | 15.05195 | 36 ft | 6 kts | 205° |
| 2026-04-29 18:08 | 37.46580 | 15.05203 | 38 ft | 4 kts | 151° |
| 2026-04-29 18:08 | 37.46564 | 15.05236 | 38 ft | 6 kts | 107° |
| 2026-04-29 18:08 | 37.46564 | 15.05250 | 38 ft | 0 kts | 82° |
| 2026-04-29 18:09 | 37.46575 | 15.05365 | 38 ft | 43 kts | 85° |
| 2026-04-29 18:10 | 37.46633 | 15.06074 | 38 ft | 121 kts | 85° |
| 2026-04-29 18:10 | 37.46742 | 15.07352 | 403 ft | 157 kts | 83° |
| 2026-04-29 18:10 | 37.46853 | 15.08771 | 1120 ft | 165 kts | 83° |
| 2026-04-29 18:10 | 37.47032 | 15.10190 | 2055 ft | 169 kts | 81° |
| 2026-04-29 18:11 | 37.47262 | 15.11788 | 2642 ft | 198 kts | 81° |
| 2026-04-29 18:11 | 37.47518 | 15.13555 | 3375 ft | 212 kts | 81° |
| 2026-04-29 18:11 | 37.47781 | 15.15407 | 4268 ft | 218 kts | 81° |
| 2026-04-29 18:11 | 37.48048 | 15.17309 | 5219 ft | 224 kts | 82° |
| 2026-04-29 18:12 | 37.48314 | 15.19233 | 6300 ft | 227 kts | 82° |
| 2026-04-29 18:12 | 37.48586 | 15.21213 | 7342 ft | 234 kts | 83° |
| 2026-04-29 18:12 | 37.48865 | 15.23253 | 8324 ft | 243 kts | 82° |
| 2026-04-29 18:12 | 37.49096 | 15.25388 | 9239 ft | 248 kts | 91° |
| 2026-04-29 18:13 | 37.48769 | 15.27515 | 9818 ft | 250 kts | 121° |
| 2026-04-29 18:13 | 37.47633 | 15.29104 | 10024 ft | 243 kts | 154° |
| 2026-04-29 18:13 | 37.46067 | 15.29796 | 10057 ft | 239 kts | 172° |
| 2026-04-29 18:13 | 37.44427 | 15.30024 | 10046 ft | 237 kts | 186° |